createdAt,value
2023-03-13T03:47:45.632Z,1.38
2023-03-13T03:50:12.277Z,1.50
2023-03-13T03:52:48.544Z,1.42
2023-03-13T03:55:15.456Z,1.60
2023-03-13T03:57:42.225Z,1.17
2023-03-13T04:00:16.001Z,1.50
2023-03-13T04:02:47.754Z,1.30
2023-03-13T04:05:14.437Z,1.40
2023-03-13T04:07:41.080Z,1.50
2023-03-13T04:10:08.073Z,1.25
2023-03-13T04:12:39.662Z,1.48
2023-03-13T04:15:06.628Z,1.40
2023-03-13T04:17:33.468Z,1.30
2023-03-13T04:20:00.265Z,1.40
2023-03-13T04:22:28.508Z,1.40
2023-03-13T04:24:58.096Z,1.40
2023-03-13T04:27:24.696Z,1.70
2023-03-13T04:29:52.086Z,1.45
2023-03-13T04:32:31.387Z,1.30
2023-03-13T04:35:05.377Z,1.52
2023-03-13T04:37:42.237Z,1.50
2023-03-13T04:40:14.856Z,1.25
2023-03-13T04:42:59.019Z,1.30
2023-03-13T04:45:44.347Z,1.30
2023-03-13T04:48:28.916Z,1.40
2023-03-13T04:51:14.156Z,1.30
2023-03-13T04:54:06.929Z,1.25
2023-03-13T04:56:56.578Z,1.38
2023-03-13T04:59:30.696Z,1.25
2023-03-13T05:02:25.729Z,1.20
2023-03-13T05:05:12.629Z,1.30
2023-03-13T05:07:57.546Z,1.20
2023-03-13T05:10:33.630Z,1.40
2023-03-13T05:13:13.991Z,1.33
2023-03-13T05:16:08.860Z,1.17
2023-03-13T05:18:54.842Z,1.45
2023-03-13T05:21:34.676Z,1.25
2023-03-13T05:24:01.196Z,1.20
2023-03-13T05:26:43.650Z,1.33
2023-03-13T05:29:10.164Z,1.40
2023-03-13T05:31:55.448Z,1.50
2023-03-13T05:34:40.900Z,1.00
2023-03-13T05:37:27.371Z,1.88
2023-03-13T05:40:06.144Z,1.20
2023-03-13T05:42:53.033Z,1.20
2023-03-13T05:45:45.876Z,1.20
2023-03-13T05:48:35.544Z,1.20
2023-03-13T05:51:26.036Z,1.17
2023-03-13T05:54:15.432Z,1.33
2023-03-13T05:57:14.442Z,1.10
2023-03-13T05:59:54.039Z,1.17
2023-03-13T06:02:39.989Z,1.20
2023-03-13T06:05:09.370Z,1.00
2023-03-13T06:07:38.238Z,1.27
2023-03-13T06:10:05.256Z,1.17
2023-03-13T06:12:32.042Z,1.48
2023-03-13T06:14:59.484Z,1.02
2023-03-13T06:17:46.277Z,1.83
2023-03-13T06:20:13.063Z,1.40
2023-03-13T06:22:39.634Z,1.23
2023-03-13T06:25:06.776Z,1.08
2023-03-13T06:27:33.356Z,1.17
2023-03-13T06:29:59.900Z,1.00
2023-03-13T06:32:26.500Z,1.23
2023-03-13T06:34:53.138Z,1.15
2023-03-13T06:37:19.691Z,1.08
2023-03-13T06:39:46.274Z,1.20
2023-03-13T06:42:12.892Z,1.27
2023-03-13T06:44:39.484Z,1.20
2023-03-13T06:47:06.156Z,1.33
2023-03-13T06:49:32.847Z,1.20
2023-03-13T06:51:59.461Z,1.02
2023-03-13T06:54:26.033Z,1.23
2023-03-13T06:56:52.594Z,1.48
2023-03-13T06:59:19.165Z,1.20
2023-03-13T07:01:46.185Z,1.20
2023-03-13T07:04:13.063Z,1.10
2023-03-13T07:06:39.697Z,1.30
2023-03-13T07:09:06.328Z,1.30
2023-03-13T07:11:32.928Z,1.40
2023-03-13T07:14:15.166Z,1.42
2023-03-13T07:16:43.366Z,0.95
2023-03-13T07:19:10.649Z,1.10
2023-03-13T07:21:37.342Z,1.05
2023-03-13T07:24:04.296Z,1.13
2023-03-13T07:26:30.932Z,1.10
2023-03-13T07:28:57.563Z,1.00
2023-03-13T07:31:24.693Z,1.10
2023-03-13T07:33:56.221Z,1.10
2023-03-13T07:36:23.047Z,1.00
2023-03-13T07:38:49.752Z,1.10
2023-03-13T07:41:16.731Z,1.10
2023-03-13T07:43:43.390Z,1.20
2023-03-13T07:46:12.327Z,0.98
2023-03-13T07:48:40.286Z,1.00
2023-03-13T07:51:09.064Z,1.23
2023-03-13T07:53:36.054Z,0.90
2023-03-13T07:56:07.683Z,0.93
2023-03-13T07:58:35.487Z,0.95
2023-03-13T08:01:07.769Z,0.98
2023-03-13T08:03:34.458Z,1.20
2023-03-13T08:06:05.843Z,1.10
2023-03-13T08:08:32.559Z,1.00
2023-03-13T08:11:20.079Z,0.90
2023-03-13T08:13:46.803Z,1.10
2023-03-13T08:16:21.012Z,1.17
2023-03-13T08:18:49.056Z,0.98
2023-03-13T08:21:17.246Z,1.10
2023-03-13T08:23:43.883Z,1.10
2023-03-13T08:26:12.261Z,1.00
2023-03-13T08:28:39.427Z,0.90
2023-03-13T08:31:13.918Z,1.02
2023-03-13T08:33:40.662Z,1.10
2023-03-13T08:36:18.690Z,0.95
2023-03-13T08:38:46.472Z,0.95
2023-03-13T08:41:14.509Z,0.98
2023-03-13T08:43:41.287Z,1.00
2023-03-13T08:46:08.048Z,1.02
2023-03-13T08:48:34.706Z,1.08
2023-03-13T08:51:12.091Z,0.98
2023-03-13T08:53:39.017Z,1.00
2023-03-13T08:56:06.254Z,0.90
2023-03-13T08:58:32.899Z,1.20
2023-03-13T09:01:07.215Z,0.90
2023-03-13T09:03:36.767Z,1.10
2023-03-13T09:06:03.920Z,1.02
2023-03-13T09:08:31.067Z,0.90
2023-03-13T09:11:09.263Z,1.02
2023-03-13T09:13:37.508Z,1.00
2023-03-13T09:16:11.580Z,1.17
2023-03-13T09:18:38.167Z,0.90
2023-03-13T09:21:07.158Z,0.95
2023-03-13T09:23:33.798Z,1.00
2023-03-13T09:26:00.426Z,0.90
2023-03-13T09:28:27.100Z,0.90
2023-03-13T09:30:54.042Z,0.90
2023-03-13T09:33:22.815Z,0.77
2023-03-13T09:35:51.070Z,0.90
2023-03-13T09:38:18.626Z,0.95
2023-03-13T09:40:59.803Z,15.07
2023-03-13T09:44:00.370Z,1.50
2023-03-13T09:46:49.766Z,1.85
2023-03-13T09:49:36.249Z,1.65
2023-03-13T09:52:26.782Z,1.40
2023-03-13T09:54:59.000Z,1.20
2023-03-13T09:57:47.513Z,1.40
2023-03-13T10:00:25.959Z,1.17
2023-03-13T10:03:12.877Z,1.50
2023-03-13T10:06:06.890Z,1.15
2023-03-13T10:08:34.581Z,1.30
2023-03-13T10:11:04.080Z,1.25
2023-03-13T10:14:02.760Z,1.20
2023-03-13T10:16:51.066Z,1.20
2023-03-13T10:19:18.469Z,1.20
2023-03-13T10:21:47.381Z,1.20
2023-03-13T10:24:18.743Z,1.10
2023-03-13T10:26:45.301Z,0.85
2023-03-13T10:29:21.421Z,1.10
2023-03-13T10:32:04.143Z,1.10
2023-03-13T10:34:58.216Z,1.20
2023-03-13T10:37:28.796Z,1.00
2023-03-13T10:39:55.588Z,1.00
2023-03-13T10:42:26.744Z,0.93
2023-03-13T10:44:59.100Z,0.88
2023-03-13T10:47:25.764Z,0.95
2023-03-13T10:49:55.794Z,0.88
2023-03-13T10:52:35.842Z,1.00
2023-03-13T10:55:06.623Z,1.00
2023-03-13T10:57:34.715Z,1.20
2023-03-13T11:00:06.293Z,1.33
2023-03-13T11:02:37.265Z,1.00
2023-03-13T11:05:28.425Z,1.20
2023-03-13T11:07:55.113Z,1.10
2023-03-13T11:10:23.480Z,1.00
2023-03-13T11:12:54.293Z,1.20
2023-03-13T11:15:29.585Z,0.98
2023-03-13T11:18:10.789Z,1.00
2023-03-13T11:20:38.757Z,1.00
2023-03-13T11:23:08.282Z,1.00
2023-03-13T11:25:41.872Z,0.90
2023-03-13T11:28:12.264Z,1.00
2023-03-13T11:31:03.631Z,1.08
2023-03-13T11:33:36.124Z,1.15
2023-03-13T11:36:03.750Z,1.20
2023-03-13T11:38:38.252Z,1.10
2023-03-13T11:41:45.351Z,1.00
2023-03-13T11:44:38.271Z,1.15
2023-03-13T11:47:22.946Z,1.00
2023-03-13T11:50:00.621Z,0.95
2023-03-13T11:52:46.538Z,0.88
2023-03-13T11:55:34.947Z,1.27
2023-03-13T11:58:29.705Z,1.00
2023-03-13T12:01:09.311Z,1.08
2023-03-13T12:03:57.666Z,1.20
2023-03-13T12:06:47.269Z,0.90
2023-03-13T12:09:30.856Z,1.10
2023-03-13T12:12:04.457Z,0.93
2023-03-13T12:14:42.556Z,1.13
2023-03-13T12:17:34.872Z,1.00
2023-03-13T12:20:08.029Z,1.02
2023-03-13T12:22:50.581Z,1.05
2023-03-13T12:25:43.102Z,1.25
2023-03-13T12:28:31.661Z,1.00
2023-03-13T12:31:14.173Z,1.27
2023-03-13T12:33:48.523Z,0.90
2023-03-13T12:36:19.836Z,0.80
2023-03-13T12:38:58.605Z,1.10
2023-03-13T12:41:31.322Z,1.02
2023-03-13T12:44:08.181Z,1.10
2023-03-13T12:46:47.019Z,1.00
2023-03-13T12:49:32.418Z,0.90
2023-03-13T12:52:29.896Z,1.00
2023-03-13T12:54:56.352Z,1.10
2023-03-13T12:57:28.157Z,0.95
2023-03-13T12:59:56.461Z,5.00
2023-03-13T13:02:24.575Z,16.48
2023-03-13T13:04:52.727Z,16.55
2023-03-13T13:07:30.146Z,6.93
2023-03-13T13:10:09.062Z,5.47
2023-03-13T13:12:46.038Z,4.18
2023-03-13T13:15:12.773Z,4.05
2023-03-13T13:17:39.352Z,3.70
2023-03-13T13:20:26.969Z,27.38
2023-03-13T13:22:53.611Z,20.52
2023-03-13T13:25:31.051Z,7.40
2023-03-13T13:28:31.012Z,6.20
2023-03-13T13:30:57.838Z,7.10
2023-03-13T13:33:30.993Z,6.45
2023-03-13T13:36:23.318Z,5.93
2023-03-13T13:38:56.830Z,5.60
2023-03-13T13:41:28.352Z,4.93
2023-03-13T13:44:27.104Z,5.45
2023-03-13T13:46:54.585Z,4.95
2023-03-13T13:49:22.463Z,5.05
2023-03-13T13:52:12.071Z,4.90
2023-03-13T13:54:45.459Z,4.32
2023-03-13T13:57:15.918Z,4.07
2023-03-13T13:59:44.365Z,4.60
2023-03-13T14:02:27.953Z,4.38
2023-03-13T14:05:02.043Z,4.10
2023-03-13T14:07:47.325Z,4.47
2023-03-13T14:10:39.738Z,4.00
2023-03-13T14:13:20.592Z,3.90
2023-03-13T14:15:53.795Z,4.03
2023-03-13T14:18:25.131Z,3.80
2023-03-13T14:21:02.092Z,4.07
2023-03-13T14:23:39.929Z,3.80
2023-03-13T14:26:13.994Z,3.78
2023-03-13T14:28:42.403Z,3.83
2023-03-13T14:31:09.298Z,3.40
2023-03-13T14:33:35.974Z,3.60
2023-03-13T14:36:02.693Z,3.10
2023-03-13T14:38:36.442Z,3.50
2023-03-13T14:41:03.110Z,3.90
2023-03-13T14:43:36.165Z,3.70
2023-03-13T14:46:29.210Z,3.10
2023-03-13T14:48:56.184Z,2.97
2023-03-13T14:51:25.150Z,3.40
2023-03-13T14:53:56.420Z,3.15
2023-03-13T14:56:37.388Z,3.33
2023-03-13T14:59:07.538Z,3.55
2023-03-13T15:01:34.211Z,3.40
2023-03-13T15:04:00.946Z,3.45
2023-03-13T15:06:27.595Z,3.25
2023-03-13T15:09:17.161Z,3.13
2023-03-13T15:11:56.265Z,3.22
2023-03-13T15:14:34.671Z,3.08
2023-03-13T15:17:01.261Z,2.70
2023-03-13T15:19:28.025Z,2.80
2023-03-13T15:21:54.792Z,2.85
2023-03-13T15:24:21.395Z,3.10
2023-03-13T15:26:49.240Z,2.60
2023-03-13T15:29:18.324Z,3.10
2023-03-13T15:31:44.987Z,3.00
2023-03-13T15:34:13.029Z,3.10
2023-03-13T15:36:42.653Z,3.00
2023-03-13T15:39:19.326Z,3.10
2023-03-13T15:41:45.878Z,3.13
2023-03-13T15:44:12.481Z,3.28
2023-03-13T15:46:39.066Z,2.70
2023-03-13T15:49:11.186Z,3.35
2023-03-13T15:51:38.153Z,2.85
2023-03-13T15:54:05.025Z,3.03
2023-03-13T15:56:35.350Z,2.33
2023-03-13T15:59:01.949Z,2.70
2023-03-13T16:01:28.790Z,2.70
2023-03-13T16:03:56.448Z,2.80
2023-03-13T16:06:31.308Z,2.72
2023-03-13T16:09:00.088Z,2.50
2023-03-13T16:11:26.761Z,2.70
2023-03-13T16:13:53.381Z,2.85
2023-03-13T16:16:29.448Z,2.88
2023-03-13T16:18:56.632Z,2.53
2023-03-13T16:21:28.085Z,2.60
2023-03-13T16:23:54.949Z,3.00
2023-03-13T16:26:26.406Z,3.03
2023-03-13T16:28:53.389Z,2.70
2023-03-13T16:31:24.690Z,2.75
2023-03-13T16:33:53.675Z,2.58
2023-03-13T16:36:28.576Z,2.47
2023-03-13T16:38:55.265Z,2.47
2023-03-13T16:41:23.120Z,2.78
2023-03-13T16:43:50.018Z,2.80
2023-03-13T16:46:17.625Z,2.55
2023-03-13T16:48:47.675Z,2.70
2023-03-13T16:51:24.126Z,2.58
2023-03-13T16:53:51.744Z,2.50
2023-03-13T16:56:35.019Z,2.25
2023-03-13T16:59:03.076Z,2.60
2023-03-13T17:01:29.986Z,2.50
2023-03-13T17:03:57.475Z,4.07
2023-03-13T17:06:28.797Z,7.57
2023-03-13T17:08:56.230Z,5.22
2023-03-13T17:11:26.006Z,6.60
2023-03-13T17:13:52.891Z,5.45
2023-03-13T17:16:21.336Z,4.90
2023-03-13T17:18:49.909Z,5.38
2023-03-13T17:21:20.900Z,5.20
2023-03-13T17:23:47.582Z,4.50
2023-03-13T17:26:37.740Z,4.63
2023-03-13T17:29:05.149Z,4.70
2023-03-13T17:31:37.230Z,5.05
2023-03-13T17:34:05.299Z,4.00
2023-03-13T17:36:31.923Z,4.70
2023-03-13T17:38:59.659Z,4.50
2023-03-13T17:41:27.687Z,2.50
2023-03-13T17:43:54.341Z,2.40
2023-03-13T17:46:36.783Z,2.45
2023-03-13T17:49:03.544Z,2.80
2023-03-13T17:51:31.453Z,2.70
2023-03-13T17:53:58.443Z,3.10
2023-03-13T17:56:32.130Z,2.95
2023-03-13T17:58:59.757Z,2.88
2023-03-13T18:01:30.726Z,2.70
2023-03-13T18:03:57.521Z,3.35
2023-03-13T18:06:26.156Z,2.40
2023-03-13T18:08:55.033Z,2.65
2023-03-13T18:11:22.012Z,2.83
2023-03-13T18:13:48.776Z,2.88
2023-03-13T18:16:30.360Z,2.90
2023-03-13T18:18:57.172Z,2.92
2023-03-13T18:21:24.272Z,2.72
2023-03-13T18:23:52.194Z,2.90
2023-03-13T18:26:24.225Z,2.70
2023-03-13T18:28:51.180Z,2.53
2023-03-13T18:31:18.147Z,2.83
2023-03-13T18:33:45.108Z,2.97
2023-03-13T18:36:19.373Z,2.30
2023-03-13T18:38:46.976Z,2.65
2023-03-13T18:41:15.481Z,2.70
2023-03-13T18:43:45.451Z,2.90
2023-03-13T18:46:18.150Z,2.70
2023-03-13T18:48:45.101Z,2.72
2023-03-13T18:51:18.853Z,2.67
2023-03-13T18:53:45.808Z,2.63
2023-03-13T18:56:17.818Z,2.80
2023-03-13T18:58:45.171Z,2.60
2023-03-13T19:01:13.609Z,2.60
2023-03-13T19:03:40.828Z,2.50
2023-03-13T19:06:22.717Z,2.28
2023-03-13T19:08:50.719Z,2.65
2023-03-13T19:11:20.009Z,2.53
2023-03-13T19:13:46.777Z,2.50
2023-03-13T19:16:16.153Z,2.60
2023-03-13T19:18:43.438Z,2.33
2023-03-13T19:21:29.593Z,2.30
2023-03-13T19:23:56.405Z,2.80
2023-03-13T19:26:29.005Z,2.47
2023-03-13T19:28:55.918Z,2.40
2023-03-13T19:31:22.945Z,2.00
2023-03-13T19:33:50.580Z,2.22
2023-03-13T19:36:18.488Z,2.70
2023-03-13T19:38:45.338Z,2.30
2023-03-13T19:41:12.822Z,2.10
2023-03-13T19:43:39.783Z,2.20
2023-03-13T19:46:23.699Z,2.20
2023-03-13T19:48:58.359Z,2.40
2023-03-13T19:51:25.750Z,2.00
2023-03-13T19:53:52.733Z,2.63
2023-03-13T19:56:23.841Z,2.30
2023-03-13T19:58:58.874Z,2.30
2023-03-13T20:01:25.985Z,2.20
2023-03-13T20:03:55.524Z,2.10
2023-03-13T20:06:30.748Z,2.20
2023-03-13T20:09:11.125Z,2.42
2023-03-13T20:11:37.988Z,2.42
2023-03-13T20:14:05.354Z,2.05
2023-03-13T20:16:34.497Z,2.17
2023-03-13T20:19:01.840Z,2.30
2023-03-13T20:21:29.993Z,2.20
2023-03-13T20:23:57.591Z,2.17
2023-03-13T20:26:24.863Z,2.30
2023-03-13T20:28:54.451Z,2.05
2023-03-13T20:31:22.881Z,2.25
2023-03-13T20:33:49.717Z,2.10
2023-03-13T20:36:18.390Z,2.10
2023-03-13T20:38:45.195Z,2.60
2023-03-13T20:41:12.027Z,2.30
2023-03-13T20:43:39.087Z,1.90
2023-03-13T20:46:07.356Z,2.10
2023-03-13T20:48:39.170Z,1.80
2023-03-13T20:51:06.563Z,1.63
2023-03-13T20:53:38.163Z,1.40
2023-03-13T20:56:06.954Z,1.30
2023-03-13T20:58:34.669Z,1.35
2023-03-13T21:01:01.429Z,1.40
2023-03-13T21:03:28.188Z,1.45
2023-03-13T21:05:57.426Z,1.40
2023-03-13T21:08:24.146Z,1.40
2023-03-13T21:10:53.678Z,1.60
2023-03-13T21:13:20.387Z,1.50
2023-03-13T21:15:47.105Z,1.50
2023-03-13T21:18:13.898Z,1.40
2023-03-13T21:20:40.786Z,1.48
2023-03-13T21:23:07.462Z,1.67
2023-03-13T21:25:34.289Z,1.40
2023-03-13T21:28:01.142Z,1.65
2023-03-13T21:30:27.968Z,1.60
2023-03-13T21:32:54.833Z,1.50
2023-03-13T21:35:21.555Z,1.40
2023-03-13T21:37:48.411Z,1.40
2023-03-13T21:40:15.070Z,1.67
2023-03-13T21:42:41.783Z,1.50
2023-03-13T21:45:09.280Z,1.60
2023-03-13T21:47:37.148Z,1.55
2023-03-13T21:50:08.101Z,1.70
2023-03-13T21:52:40.838Z,1.60
2023-03-13T21:55:10.139Z,1.23
2023-03-13T21:57:36.894Z,1.40
2023-03-13T22:00:06.357Z,1.50
2023-03-13T22:02:35.069Z,1.65
2023-03-13T22:05:02.442Z,1.45
2023-03-13T22:07:30.881Z,1.50
2023-03-13T22:09:58.009Z,1.33
2023-03-13T22:12:25.611Z,1.42
2023-03-13T22:14:52.912Z,1.50
2023-03-13T22:17:20.343Z,1.60
2023-03-13T22:19:47.208Z,1.67
2023-03-13T22:22:14.212Z,1.50
2023-03-13T22:24:40.853Z,1.63
2023-03-13T22:27:09.060Z,1.60
2023-03-13T22:29:35.822Z,1.63
2023-03-13T22:32:02.657Z,1.40
2023-03-13T22:34:29.454Z,1.40
2023-03-13T22:36:56.158Z,1.40
2023-03-13T22:39:22.928Z,1.58
2023-03-13T22:41:49.622Z,1.40
2023-03-13T22:44:16.530Z,1.52
2023-03-13T22:46:43.408Z,1.42
2023-03-13T22:49:10.106Z,1.77
2023-03-13T22:51:36.836Z,1.55
2023-03-13T22:54:03.686Z,1.45
2023-03-13T22:56:30.242Z,1.30
2023-03-13T22:58:56.915Z,1.40
2023-03-13T23:01:23.673Z,1.50
2023-03-13T23:03:50.318Z,1.15
2023-03-13T23:06:19.042Z,1.30
2023-03-13T23:08:45.866Z,1.45
2023-03-13T23:11:12.577Z,1.30
2023-03-13T23:13:39.297Z,1.60
2023-03-13T23:16:09.748Z,1.30
2023-03-13T23:18:36.556Z,1.20
2023-03-13T23:21:07.918Z,1.30
2023-03-13T23:23:34.669Z,1.20
2023-03-13T23:26:05.885Z,1.30
2023-03-13T23:28:33.652Z,1.30
2023-03-13T23:31:00.873Z,1.30
2023-03-13T23:33:28.575Z,1.30
2023-03-13T23:35:55.274Z,1.30
2023-03-13T23:38:24.016Z,1.23
2023-03-13T23:40:50.646Z,1.20
2023-03-13T23:43:17.261Z,1.20
2023-03-13T23:45:43.890Z,1.35
2023-03-13T23:48:10.490Z,1.20
2023-03-13T23:50:37.121Z,1.10
2023-03-13T23:53:03.741Z,1.10
2023-03-13T23:55:30.307Z,1.40
2023-03-13T23:57:56.878Z,1.45
